Time;durP1;ratioP1;P1;durP2;ratioP2;P2;SDS_P1;SDS_P2;PMS_P1;PMS_P2;Temp;Humidity;BMP_temperature;BMP_pressure;BME280_temperature;BME280_humidity;BME280_pressure;Samples;Min_cycle;Max_cycle;Signal;HPM_P1;HPM_P2
2023/01/28 00:01:47;;;;;;;5.47;5.07;;;;;;;;;;4990492;28;20441;-70
2023/01/28 00:04:14;;;;;;;4.50;4.20;;;;;;;;;;4991535;28;20455;-69
2023/01/28 00:06:40;;;;;;;4.70;4.30;;;;;;;;;;4989497;28;20483;-69
2023/01/28 00:09:06;;;;;;;5.00;4.60;;;;;;;;;;4990512;28;21008;-70
2023/01/28 00:11:32;;;;;;;3.97;3.77;;;;;;;;;;4990778;28;20436;-70
2023/01/28 00:13:58;;;;;;;3.70;3.60;;;;;;;;;;4991122;28;20455;-70
2023/01/28 00:16:26;;;;;;;5.00;4.60;;;;;;;;;;4990958;28;20499;-71
2023/01/28 00:18:52;;;;;;;4.87;4.57;;;;;;;;;;4990953;28;20519;-68
2023/01/28 00:21:18;;;;;;;4.73;4.33;;;;;;;;;;4991514;28;20433;-68
2023/01/28 00:23:49;;;;;;;4.53;4.33;;;;;;;;;;4991231;28;20945;-70
2023/01/28 00:26:15;;;;;;;4.50;4.20;;;;;;;;;;4991326;28;20471;-69
2023/01/28 00:28:42;;;;;;;5.43;5.10;;;;;;;;;;4990988;28;20473;-71
2023/01/28 00:31:08;;;;;;;5.63;4.13;;;;;;;;;;4989994;28;20483;-69
2023/01/28 00:33:35;;;;;;;4.20;3.83;;;;;;;;;;4973833;28;20433;-71
2023/01/28 00:36:01;;;;;;;4.03;3.83;;;;;;;;;;4985059;28;20440;-70
2023/01/28 00:38:28;;;;;;;4.73;4.33;;;;;;;;;;4987232;28;20485;-71
2023/01/28 00:40:54;;;;;;;4.33;3.93;;;;;;;;;;4991255;28;20421;-69
2023/01/28 00:43:20;;;;;;;5.77;4.30;;;;;;;;;;4990998;28;20451;-67
2023/01/28 00:45:46;;;;;;;4.20;3.90;;;;;;;;;;4990022;28;20433;-69
2023/01/28 00:48:12;;;;;;;4.67;4.27;;;;;;;;;;4989304;28;20445;-72
2023/01/28 00:50:39;;;;;;;4.90;3.90;;;;;;;;;;4990105;28;20429;-71
2023/01/28 00:53:05;;;;;;;3.87;3.57;;;;;;;;;;4988918;28;20937;-69
2023/01/28 00:55:31;;;;;;;4.27;4.07;;;;;;;;;;4988146;28;20433;-71
2023/01/28 00:57:57;;;;;;;3.43;3.33;;;;;;;;;;4989844;28;20499;-66
2023/01/28 01:00:25;;;;;;;4.40;4.00;;;;;;;;;;4990401;28;20441;-69
2023/01/28 01:02:51;;;;;;;3.00;2.90;;;;;;;;;;4989048;28;20448;-68
2023/01/28 01:05:18;;;;;;;3.60;3.47;;;;;;;;;;4988567;28;20820;-67
2023/01/28 01:07:44;;;;;;;3.80;3.60;;;;;;;;;;4990318;28;20511;-68
2023/01/28 01:10:10;;;;;;;3.60;3.40;;;;;;;;;;4989834;28;20483;-70
2023/01/28 01:12:37;;;;;;;4.17;3.90;;;;;;;;;;4989993;28;20448;-71
2023/01/28 01:15:04;;;;;;;3.43;3.23;;;;;;;;;;4990052;28;20465;-70
2023/01/28 01:17:31;;;;;;;5.30;4.10;;;;;;;;;;4989445;28;20512;-71
2023/01/28 01:19:57;;;;;;;4.60;3.90;;;;;;;;;;4989521;28;20492;-71
2023/01/28 01:22:23;;;;;;;3.13;3.03;;;;;;;;;;4988407;28;20436;-71
2023/01/28 01:24:48;;;;;;;3.70;3.50;;;;;;;;;;4988935;28;20464;-71
2023/01/28 01:27:14;;;;;;;4.13;3.83;;;;;;;;;;4987785;28;20453;-71
2023/01/28 01:29:40;;;;;;;3.17;2.87;;;;;;;;;;4990276;28;20452;-72
2023/01/28 01:32:06;;;;;;;4.07;3.77;;;;;;;;;;4990425;28;20471;-71
2023/01/28 01:34:32;;;;;;;3.43;3.23;;;;;;;;;;4988571;28;20456;-73
2023/01/28 01:36:58;;;;;;;3.47;3.37;;;;;;;;;;4989445;28;20449;-71
2023/01/28 01:39:24;;;;;;;4.00;3.70;;;;;;;;;;4989796;28;20481;-71
2023/01/28 01:41:50;;;;;;;4.40;3.97;;;;;;;;;;4988530;28;20999;-70
2023/01/28 01:44:35;;;;;;;4.47;4.23;;;;;;;;;;4988554;28;20448;-71
2023/01/28 01:47:01;;;;;;;3.90;3.70;;;;;;;;;;4988566;28;20544;-72
2023/01/28 01:49:28;;;;;;;4.60;4.30;;;;;;;;;;4988890;28;20532;-71
2023/01/28 01:51:57;;;;;;;3.43;3.30;;;;;;;;;;4988167;28;20480;-70
2023/01/28 01:54:24;;;;;;;3.70;3.50;;;;;;;;;;4988947;28;20441;-71
2023/01/28 01:56:50;;;;;;;5.00;3.70;;;;;;;;;;4989172;28;20452;-70
2023/01/28 01:59:19;;;;;;;4.43;4.13;;;;;;;;;;4989489;28;20516;-68
2023/01/28 02:01:46;;;;;;;3.87;3.57;;;;;;;;;;4988904;28;20433;-69
2023/01/28 02:04:22;;;;;;;3.67;3.37;;;;;;;;;;4988566;28;20472;-70
2023/01/28 02:06:48;;;;;;;3.73;3.53;;;;;;;;;;4989510;28;20540;-72
2023/01/28 02:09:24;;;;;;;3.70;3.50;;;;;;;;;;4988962;28;20893;-71
2023/01/28 02:11:51;;;;;;;4.30;3.90;;;;;;;;;;4985370;28;20490;-69
2023/01/28 02:14:17;;;;;;;4.13;3.80;;;;;;;;;;4988684;28;20441;-67
2023/01/28 02:16:43;;;;;;;3.70;3.50;;;;;;;;;;4988228;28;20531;-72
2023/01/28 02:19:10;;;;;;;4.43;4.13;;;;;;;;;;4988696;28;20489;-70
2023/01/28 02:21:42;;;;;;;3.73;3.40;;;;;;;;;;4988298;28;20952;-70
2023/01/28 02:24:24;;;;;;;4.00;3.67;;;;;;;;;;4989647;28;20448;-71
2023/01/28 02:26:50;;;;;;;4.13;3.93;;;;;;;;;;4975706;28;20498;-70
2023/01/28 02:29:42;;;;;;;3.60;3.47;;;;;;;;;;4974810;28;20452;-71
2023/01/28 02:32:14;;;;;;;4.20;4.00;;;;;;;;;;4989908;28;20448;-68
2023/01/28 02:34:45;;;;;;;4.20;3.90;;;;;;;;;;4992760;28;20437;-68
2023/01/28 02:37:11;;;;;;;8.10;3.57;;;;;;;;;;4991939;28;20479;-70
2023/01/28 02:39:42;;;;;;;3.87;3.67;;;;;;;;;;4992551;28;20477;-69
2023/01/28 02:42:15;;;;;;;3.20;3.10;;;;;;;;;;4974843;28;20437;-68
2023/01/28 02:44:41;;;;;;;3.60;3.40;;;;;;;;;;4991878;28;20484;-71
2023/01/28 02:50:00;;;;;;;7.97;3.40;;;;;;;;;;4992891;28;20456;-71
2023/01/28 02:55:29;;;;;;;3.30;3.20;;;;;;;;;;4992620;28;20536;-70
2023/01/28 02:58:00;;;;;;;4.00;3.90;;;;;;;;;;4992009;28;20499;-71
2023/01/28 03:00:38;;;;;;;3.73;3.50;;;;;;;;;;4991385;28;20436;-70
2023/01/28 03:03:16;;;;;;;3.60;3.40;;;;;;;;;;4991037;28;20452;-71
2023/01/28 03:06:02;;;;;;;3.47;3.37;;;;;;;;;;4973927;28;20449;-70
2023/01/28 03:38:52;;;;;;;3.37;3.17;;;;;;;;;;4990798;28;20537;-69
2023/01/28 03:41:22;;;;;;;3.00;2.90;;;;;;;;;;4991723;28;20514;-72
2023/01/28 03:43:49;;;;;;;3.73;3.43;;;;;;;;;;4990908;28;20444;-71
2023/01/28 03:46:15;;;;;;;3.33;3.23;;;;;;;;;;4990754;28;20491;-69
2023/01/28 03:48:41;;;;;;;3.07;2.97;;;;;;;;;;4991033;28;20540;-68
2023/01/28 03:51:07;;;;;;;2.90;2.50;;;;;;;;;;4991051;28;20444;-70
2023/01/28 03:53:33;;;;;;;2.60;2.53;;;;;;;;;;4972656;28;20489;-71
2023/01/28 03:55:59;;;;;;;2.80;2.80;;;;;;;;;;4990646;28;20495;-70
2023/01/28 03:58:26;;;;;;;3.30;3.20;;;;;;;;;;4976758;28;20571;-68
2023/01/28 04:00:52;;;;;;;2.50;2.50;;;;;;;;;;4991269;28;20484;-71
2023/01/28 04:03:19;;;;;;;2.87;2.77;;;;;;;;;;4989916;28;21015;-69
2023/01/28 04:05:46;;;;;;;2.90;2.80;;;;;;;;;;4989620;28;20798;-71
2023/01/28 04:08:12;;;;;;;3.97;3.67;;;;;;;;;;4972664;28;21980;-70
2023/01/28 04:10:39;;;;;;;3.03;2.90;;;;;;;;;;4991372;28;20959;-70
2023/01/28 04:13:05;;;;;;;2.90;2.80;;;;;;;;;;4990565;28;20457;-71
2023/01/28 04:15:32;;;;;;;2.67;2.60;;;;;;;;;;4990765;28;21017;-71
2023/01/28 04:17:59;;;;;;;2.70;2.60;;;;;;;;;;4991281;28;20615;-69
2023/01/28 04:20:25;;;;;;;3.10;3.00;;;;;;;;;;4990928;28;20444;-72
2023/01/28 04:22:51;;;;;;;2.77;2.57;;;;;;;;;;4990292;28;20447;-71
2023/01/28 04:25:17;;;;;;;2.70;2.60;;;;;;;;;;4990330;28;20449;-71
2023/01/28 04:27:43;;;;;;;3.13;3.03;;;;;;;;;;4990479;28;20484;-72
2023/01/28 04:30:09;;;;;;;3.03;2.90;;;;;;;;;;4990785;28;20449;-73
2023/01/28 04:32:35;;;;;;;2.10;2.10;;;;;;;;;;4972662;28;20503;-71
2023/01/28 04:35:01;;;;;;;3.27;2.73;;;;;;;;;;4989601;28;20445;-72
2023/01/28 04:37:27;;;;;;;2.10;2.10;;;;;;;;;;4990804;28;20472;-71
2023/01/28 04:39:53;;;;;;;2.60;2.53;;;;;;;;;;4973624;28;20453;-70
2023/01/28 04:42:19;;;;;;;3.60;2.33;;;;;;;;;;4989557;28;20473;-71
2023/01/28 04:44:45;;;;;;;2.33;2.22;;;;;;;;;;4988150;28;20436;-70
2023/01/28 04:47:11;;;;;;;2.20;2.20;;;;;;;;;;4989601;28;20252;-72
2023/01/28 04:49:37;;;;;;;2.70;2.60;;;;;;;;;;4990739;28;20449;-71
2023/01/28 04:52:03;;;;;;;2.20;2.20;;;;;;;;;;4989657;28;20444;-68
2023/01/28 04:54:29;;;;;;;3.27;2.77;;;;;;;;;;4971827;28;20453;-71
2023/01/28 04:56:55;;;;;;;8.33;2.63;;;;;;;;;;4989008;28;20472;-71
2023/01/28 04:59:22;;;;;;;2.63;2.53;;;;;;;;;;4990631;28;20488;-71
2023/01/28 05:01:48;;;;;;;1.93;1.93;;;;;;;;;;4988853;28;20527;-68
2023/01/28 05:04:16;;;;;;;2.90;2.90;;;;;;;;;;4989521;28;20492;-68
2023/01/28 05:06:42;;;;;;;2.63;2.60;;;;;;;;;;4989965;28;20456;-68
2023/01/28 05:09:08;;;;;;;2.73;2.63;;;;;;;;;;4989190;28;20473;-71
2023/01/28 05:11:34;;;;;;;2.77;2.67;;;;;;;;;;4990057;28;20535;-70
2023/01/28 05:14:01;;;;;;;2.70;2.60;;;;;;;;;;4989810;28;20834;-71
2023/01/28 05:16:27;;;;;;;2.33;2.17;;;;;;;;;;4988740;28;20523;-71
2023/01/28 05:18:53;;;;;;;2.80;2.80;;;;;;;;;;4989344;28;20579;-68
2023/01/28 05:21:19;;;;;;;2.10;2.00;;;;;;;;;;4990007;28;20441;-70
2023/01/28 05:23:45;;;;;;;2.93;2.83;;;;;;;;;;4972267;28;20456;-70
2023/01/28 05:26:12;;;;;;;1.90;1.80;;;;;;;;;;4989256;28;20487;-69
2023/01/28 05:28:38;;;;;;;3.10;2.80;;;;;;;;;;4988732;28;20440;-71
2023/01/28 05:31:05;;;;;;;3.43;3.13;;;;;;;;;;4989632;28;20862;-70
2023/01/28 05:33:31;;;;;;;2.57;2.53;;;;;;;;;;4972247;28;20453;-72
2023/01/28 05:35:57;;;;;;;2.77;2.67;;;;;;;;;;4989266;28;20433;-71
2023/01/28 05:38:23;;;;;;;2.40;2.40;;;;;;;;;;4988346;28;20878;-69
2023/01/28 05:40:49;;;;;;;1.87;1.87;;;;;;;;;;4989941;28;20435;-70
2023/01/28 05:43:15;;;;;;;2.03;1.93;;;;;;;;;;4989050;28;20961;-70
2023/01/28 05:45:41;;;;;;;3.10;3.00;;;;;;;;;;4987979;28;20448;-71
2023/01/28 05:48:07;;;;;;;2.10;2.10;;;;;;;;;;4988324;28;20462;-72
2023/01/28 05:50:33;;;;;;;2.80;2.70;;;;;;;;;;4989732;28;20453;-72
2023/01/28 05:52:59;;;;;;;2.73;2.63;;;;;;;;;;4988399;28;20791;-70
2023/01/28 05:55:25;;;;;;;1.97;1.97;;;;;;;;;;4989086;28;20814;-71
2023/01/28 05:57:51;;;;;;;2.27;2.10;;;;;;;;;;4988299;28;20492;-72
2023/01/28 06:00:17;;;;;;;2.23;2.23;;;;;;;;;;4991087;28;20441;-72
2023/01/28 06:02:43;;;;;;;2.07;2.07;;;;;;;;;;4991351;28;20479;-71
2023/01/28 06:05:10;;;;;;;2.33;2.33;;;;;;;;;;4991442;28;20810;-71
2023/01/28 06:07:35;;;;;;;3.07;2.87;;;;;;;;;;4993864;28;20455;-72
2023/01/28 06:10:01;;;;;;;1.80;1.80;;;;;;;;;;4992159;28;20480;-71
2023/01/28 06:12:27;;;;;;;2.77;2.63;;;;;;;;;;4992736;28;20444;-71
2023/01/28 06:14:53;;;;;;;2.30;2.20;;;;;;;;;;4992143;28;20463;-72
2023/01/28 06:17:19;;;;;;;2.40;2.20;;;;;;;;;;4993609;28;20495;-70
2023/01/28 06:19:45;;;;;;;2.50;2.50;;;;;;;;;;4993661;28;21007;-70
2023/01/28 06:22:11;;;;;;;2.57;2.47;;;;;;;;;;4975137;28;20440;-68
2023/01/28 06:24:37;;;;;;;2.30;2.30;;;;;;;;;;4992145;28;20452;-70
2023/01/28 06:27:03;;;;;;;2.57;2.57;;;;;;;;;;4993138;28;20452;-72
2023/01/28 06:29:29;;;;;;;2.23;2.23;;;;;;;;;;4993187;28;20455;-70
2023/01/28 06:31:55;;;;;;;2.37;2.27;;;;;;;;;;4991894;28;20449;-72
2023/01/28 06:34:21;;;;;;;2.10;2.10;;;;;;;;;;4991418;28;20453;-70
2023/01/28 06:36:47;;;;;;;2.40;2.30;;;;;;;;;;4992812;28;20451;-71
2023/01/28 06:39:13;;;;;;;2.40;2.30;;;;;;;;;;4993098;28;20484;-69
2023/01/28 06:41:39;;;;;;;3.07;2.97;;;;;;;;;;4992918;28;20444;-72
2023/01/28 06:44:05;;;;;;;3.40;3.20;;;;;;;;;;4991259;28;20515;-72
2023/01/28 06:46:31;;;;;;;2.20;2.20;;;;;;;;;;4992542;28;20487;-70
2023/01/28 06:48:56;;;;;;;2.17;2.17;;;;;;;;;;4991592;28;20944;-72
2023/01/28 06:51:22;;;;;;;1.90;1.90;;;;;;;;;;4990761;28;20859;-70
2023/01/28 06:53:48;;;;;;;2.30;2.30;;;;;;;;;;4991523;28;20962;-72
2023/01/28 06:56:14;;;;;;;2.47;2.37;;;;;;;;;;4992676;28;20468;-72
2023/01/28 06:58:40;;;;;;;2.50;2.50;;;;;;;;;;4992353;28;20729;-72
2023/01/28 07:01:06;;;;;;;3.03;2.83;;;;;;;;;;4990375;28;20477;-71
2023/01/28 07:03:32;;;;;;;2.40;2.30;;;;;;;;;;4975761;28;20440;-70
2023/01/28 07:05:58;;;;;;;2.90;2.87;;;;;;;;;;4991964;28;20437;-70
2023/01/28 07:08:24;;;;;;;2.50;2.50;;;;;;;;;;4992644;28;20531;-71
2023/01/28 07:10:50;;;;;;;2.43;2.33;;;;;;;;;;4991321;28;20475;-71
2023/01/28 07:13:16;;;;;;;2.93;2.83;;;;;;;;;;4991995;28;20460;-72
2023/01/28 07:15:42;;;;;;;2.60;2.50;;;;;;;;;;4989960;28;20437;-71
2023/01/28 07:18:08;;;;;;;3.20;3.00;;;;;;;;;;4992372;28;20485;-72
2023/01/28 07:20:34;;;;;;;2.43;2.30;;;;;;;;;;4992129;28;20972;-68
2023/01/28 07:23:00;;;;;;;2.47;2.37;;;;;;;;;;4991432;28;20456;-68
2023/01/28 07:25:26;;;;;;;3.47;3.37;;;;;;;;;;4990844;28;20444;-70
2023/01/28 07:27:52;;;;;;;3.70;2.30;;;;;;;;;;4989422;28;21177;-67
2023/01/28 07:30:19;;;;;;;3.50;3.30;;;;;;;;;;4989137;28;20452;-69
2023/01/28 07:32:45;;;;;;;2.03;2.03;;;;;;;;;;4990636;28;20515;-68
2023/01/28 07:35:12;;;;;;;2.53;2.43;;;;;;;;;;4990728;28;20448;-67
2023/01/28 07:37:38;;;;;;;2.30;2.30;;;;;;;;;;4990603;28;20905;-71
2023/01/28 07:40:04;;;;;;;2.43;2.33;;;;;;;;;;4991367;28;20822;-71
2023/01/28 07:42:30;;;;;;;2.13;2.07;;;;;;;;;;4990927;28;20477;-72
2023/01/28 07:44:56;;;;;;;3.00;2.90;;;;;;;;;;4990327;28;20453;-70
2023/01/28 07:47:22;;;;;;;2.63;2.50;;;;;;;;;;4986542;28;20949;-69
2023/01/28 07:49:48;;;;;;;3.17;2.97;;;;;;;;;;4989098;28;20448;-69
2023/01/28 07:52:14;;;;;;;2.10;2.00;;;;;;;;;;4989929;28;20433;-67
2023/01/28 07:54:40;;;;;;;2.53;2.43;;;;;;;;;;4989888;28;20447;-67
2023/01/28 07:57:09;;;;;;;3.10;2.30;;;;;;;;;;4989837;28;20437;-70
2023/01/28 07:59:35;;;;;;;1.90;1.90;;;;;;;;;;4990508;28;20453;-65
2023/01/28 08:02:01;;;;;;;2.47;2.40;;;;;;;;;;4989330;28;20893;-71
2023/01/28 08:04:27;;;;;;;1.80;1.70;;;;;;;;;;4990495;28;20548;-72
2023/01/28 08:06:53;;;;;;;2.30;2.30;;;;;;;;;;4990554;28;20520;-66
2023/01/28 08:09:19;;;;;;;1.73;1.73;;;;;;;;;;4990785;28;20480;-71
2023/01/28 08:11:45;;;;;;;2.40;2.40;;;;;;;;;;4988730;28;20433;-72
2023/01/28 08:14:11;;;;;;;2.30;2.20;;;;;;;;;;4987521;28;20437;-70
2023/01/28 08:16:37;;;;;;;2.60;2.50;;;;;;;;;;4989536;28;20460;-71
2023/01/28 08:19:03;;;;;;;2.20;2.20;;;;;;;;;;4990045;28;20555;-71
2023/01/28 08:21:29;;;;;;;2.80;2.70;;;;;;;;;;4990924;28;20422;-72
2023/01/28 08:23:55;;;;;;;2.30;2.30;;;;;;;;;;4989185;28;20467;-71
2023/01/28 08:26:21;;;;;;;2.67;2.50;;;;;;;;;;4992390;28;20778;-69
2023/01/28 08:28:47;;;;;;;1.70;1.70;;;;;;;;;;4973486;28;20453;-71
2023/01/28 08:31:13;;;;;;;3.10;2.93;;;;;;;;;;4991491;28;20701;-70
2023/01/28 08:33:39;;;;;;;2.50;2.40;;;;;;;;;;4972844;28;20437;-69
2023/01/28 08:36:05;;;;;;;1.97;1.87;;;;;;;;;;4991005;28;20943;-71
2023/01/28 08:38:32;;;;;;;2.83;2.73;;;;;;;;;;4990969;28;20484;-70
2023/01/28 08:40:58;;;;;;;1.80;1.80;;;;;;;;;;4989028;28;20473;-68
2023/01/28 08:43:24;;;;;;;2.10;2.10;;;;;;;;;;4991148;28;20441;-72
2023/01/28 08:45:50;;;;;;;1.80;1.70;;;;;;;;;;4989016;28;20425;-73
2023/01/28 08:48:17;;;;;;;2.07;2.07;;;;;;;;;;4987289;28;20817;-72
2023/01/28 08:50:44;;;;;;;3.10;2.80;;;;;;;;;;4987766;28;20491;-71
2023/01/28 08:53:17;;;;;;;2.50;2.40;;;;;;;;;;4991546;28;20511;-71
2023/01/28 08:55:43;;;;;;;2.80;2.70;;;;;;;;;;4990687;28;20664;-70
2023/01/28 08:58:11;;;;;;;2.23;2.23;;;;;;;;;;4972219;28;20525;-72
2023/01/28 09:00:37;;;;;;;2.30;2.10;;;;;;;;;;4987951;28;21411;-71
2023/01/28 09:03:04;;;;;;;4.10;2.20;;;;;;;;;;4988362;28;20452;-71
2023/01/28 09:05:31;;;;;;;3.10;3.00;;;;;;;;;;4988536;28;20444;-72
2023/01/28 09:08:01;;;;;;;7.33;4.37;;;;;;;;;;4971558;28;20803;-71
2023/01/28 09:10:27;;;;;;;2.30;2.30;;;;;;;;;;4990705;28;20477;-71
2023/01/28 09:12:53;;;;;;;3.57;3.27;;;;;;;;;;4987165;28;20975;-72
2023/01/28 09:15:19;;;;;;;2.37;2.27;;;;;;;;;;4988457;28;20889;-72
2023/01/28 09:17:45;;;;;;;2.30;2.07;;;;;;;;;;4989675;28;20526;-72
2023/01/28 09:20:11;;;;;;;3.00;2.90;;;;;;;;;;4990046;28;20511;-71
2023/01/28 09:22:38;;;;;;;2.90;2.80;;;;;;;;;;4990395;28;20473;-72
2023/01/28 09:25:04;;;;;;;3.47;3.33;;;;;;;;;;4990225;28;20516;-71
2023/01/28 09:27:30;;;;;;;3.27;3.07;;;;;;;;;;4973690;28;20464;-67
2023/01/28 09:29:56;;;;;;;3.07;2.97;;;;;;;;;;4990451;28;20453;-70
2023/01/28 09:32:23;;;;;;;2.93;2.83;;;;;;;;;;4989099;28;20499;-68
2023/01/28 09:34:49;;;;;;;6.20;5.60;;;;;;;;;;4989797;28;20468;-67
2023/01/28 09:37:17;;;;;;;3.20;3.10;;;;;;;;;;4986417;28;20453;-68
2023/01/28 09:39:42;;;;;;;3.67;3.37;;;;;;;;;;4978551;28;20507;-68
2023/01/28 09:42:31;;;;;;;2.67;2.57;;;;;;;;;;4985445;28;20425;-69
2023/01/28 09:45:11;;;;;;;3.30;3.10;;;;;;;;;;4987547;28;20508;-67
2023/01/28 09:47:42;;;;;;;2.60;2.50;;;;;;;;;;4988008;28;20524;-71
2023/01/28 09:50:15;;;;;;;4.17;2.30;;;;;;;;;;4970719;28;20810;-66
2023/01/28 09:52:41;;;;;;;2.60;2.50;;;;;;;;;;4985814;28;20441;-68
2023/01/28 09:55:22;;;;;;;2.70;2.60;;;;;;;;;;4989758;28;20437;-68
2023/01/28 09:57:52;;;;;;;5.13;3.83;;;;;;;;;;4969969;28;20496;-67
2023/01/28 10:00:21;;;;;;;2.33;2.33;;;;;;;;;;4988215;28;21016;-69
2023/01/28 10:03:16;;;;;;;2.43;2.33;;;;;;;;;;4969540;28;20890;-67
2023/01/28 10:05:45;;;;;;;2.57;2.47;;;;;;;;;;4974520;28;20445;-70
2023/01/28 10:08:29;;;;;;;2.30;2.20;;;;;;;;;;4988674;28;20511;-68
2023/01/28 10:10:55;;;;;;;3.43;3.23;;;;;;;;;;4972237;28;20433;-69
2023/01/28 10:13:21;;;;;;;2.57;2.23;;;;;;;;;;4970744;28;20498;-69
2023/01/28 10:15:50;;;;;;;2.07;1.97;;;;;;;;;;4988075;28;20503;-70
2023/01/28 10:18:19;;;;;;;3.33;3.23;;;;;;;;;;4989203;28;20582;-68
2023/01/28 10:21:08;;;;;;;3.03;2.43;;;;;;;;;;4989010;28;20436;-68
2023/01/28 10:23:46;;;;;;;3.23;3.03;;;;;;;;;;4980535;28;20461;-68
2023/01/28 10:26:20;;;;;;;2.87;2.77;;;;;;;;;;4986225;28;20445;-69
2023/01/28 10:28:53;;;;;;;3.27;3.00;;;;;;;;;;4989373;28;20459;-68
2023/01/28 10:31:19;;;;;;;2.70;2.53;;;;;;;;;;4987613;28;20453;-68
2023/01/28 10:33:45;;;;;;;3.40;3.20;;;;;;;;;;4972391;28;20475;-71
2023/01/28 10:36:11;;;;;;;3.93;3.70;;;;;;;;;;4987370;28;20464;-70
2023/01/28 10:38:37;;;;;;;2.73;2.67;;;;;;;;;;4972243;28;20524;-69
2023/01/28 10:41:03;;;;;;;2.90;2.80;;;;;;;;;;4988279;28;20491;-70
2023/01/28 10:43:31;;;;;;;2.83;2.73;;;;;;;;;;4990043;28;20426;-70
2023/01/28 10:46:03;;;;;;;4.10;1.70;;;;;;;;;;4974139;28;20525;-68
2023/01/28 10:48:32;;;;;;;1.90;1.90;;;;;;;;;;4975823;28;20424;-70
2023/01/28 10:51:01;;;;;;;2.00;1.90;;;;;;;;;;4993286;28;20444;-69
2023/01/28 10:53:34;;;;;;;2.83;2.73;;;;;;;;;;4993639;28;20991;-67
2023/01/28 10:56:02;;;;;;;3.40;3.30;;;;;;;;;;4987056;28;20445;-70
2023/01/28 10:58:30;;;;;;;2.27;2.27;;;;;;;;;;4993272;28;20531;-70
2023/01/28 11:00:58;;;;;;;1.87;1.80;;;;;;;;;;4971944;28;20437;-67
2023/01/28 11:03:31;;;;;;;1.80;1.80;;;;;;;;;;4992720;28;20909;-69
2023/01/28 11:05:58;;;;;;;13.47;2.57;;;;;;;;;;4991137;28;20980;-68
2023/01/28 11:08:25;;;;;;;6.73;1.80;;;;;;;;;;4993125;28;20425;-67
2023/01/28 11:10:51;;;;;;;2.90;2.70;;;;;;;;;;4991618;28;20452;-68
2023/01/28 11:13:28;;;;;;;3.33;3.07;;;;;;;;;;4993305;28;20444;-70
2023/01/28 11:15:57;;;;;;;3.73;2.87;;;;;;;;;;4974847;28;20997;-68
2023/01/28 11:18:24;;;;;;;1.73;1.73;;;;;;;;;;4975421;28;21026;-67
2023/01/28 11:20:52;;;;;;;2.90;2.90;;;;;;;;;;4992683;28;20436;-70
2023/01/28 11:23:23;;;;;;;3.60;3.50;;;;;;;;;;4992920;28;20457;-71
2023/01/28 11:25:58;;;;;;;2.77;2.67;;;;;;;;;;4992541;28;21004;-69
2023/01/28 11:28:25;;;;;;;5.53;2.97;;;;;;;;;;4992210;28;20472;-69
2023/01/28 11:30:53;;;;;;;2.20;2.20;;;;;;;;;;4992121;28;20421;-71
2023/01/28 11:33:31;;;;;;;2.77;2.77;;;;;;;;;;4992699;28;21131;-68
2023/01/28 11:36:03;;;;;;;2.70;2.60;;;;;;;;;;4992674;28;20425;-67
2023/01/28 11:38:29;;;;;;;2.27;2.17;;;;;;;;;;4991719;28;20485;-67
2023/01/28 11:40:57;;;;;;;2.57;2.47;;;;;;;;;;4992539;28;20421;-70
2023/01/28 11:43:24;;;;;;;3.03;2.50;;;;;;;;;;4975332;28;21342;-68
2023/01/28 11:46:12;;;;;;;2.57;2.57;;;;;;;;;;4974724;28;20429;-68
2023/01/28 11:48:49;;;;;;;2.83;2.73;;;;;;;;;;4990515;28;20455;-67
2023/01/28 11:51:27;;;;;;;2.67;2.67;;;;;;;;;;4992651;28;20417;-68
2023/01/28 11:53:56;;;;;;;2.60;2.47;;;;;;;;;;4975215;28;20472;-69
2023/01/28 11:56:41;;;;;;;2.20;2.20;;;;;;;;;;4992001;28;20476;-70
2023/01/28 11:59:18;;;;;;;2.10;2.00;;;;;;;;;;4990365;28;20488;-70
2023/01/28 12:02:02;;;;;;;2.50;2.40;;;;;;;;;;4992290;28;20428;-68
2023/01/28 12:04:28;;;;;;;2.10;2.00;;;;;;;;;;4974935;28;20417;-67
2023/01/28 12:07:06;;;;;;;2.20;1.93;;;;;;;;;;4974489;28;20421;-69
2023/01/28 12:09:41;;;;;;;1.93;1.83;;;;;;;;;;4990986;28;20499;-68
2023/01/28 12:12:14;;;;;;;1.73;1.67;;;;;;;;;;4974710;28;20428;-70
2023/01/28 12:14:59;;;;;;;2.03;2.03;;;;;;;;;;4992278;28;20453;-68
2023/01/28 12:17:44;;;;;;;2.50;2.40;;;;;;;;;;4992173;28;20440;-67
2023/01/28 12:20:22;;;;;;;1.57;1.57;;;;;;;;;;4991298;28;20826;-67
2023/01/28 12:22:57;;;;;;;1.83;1.83;;;;;;;;;;4991847;28;20551;-67
2023/01/28 12:25:27;;;;;;;1.57;1.57;;;;;;;;;;4991428;28;20451;-71
2023/01/28 12:28:08;;;;;;;2.20;2.20;;;;;;;;;;4974198;28;20460;-73
2023/01/28 12:30:41;;;;;;;2.00;1.90;;;;;;;;;;4988922;28;20456;-71
2023/01/28 12:33:14;;;;;;;2.13;2.03;;;;;;;;;;4987567;28;20856;-71
2023/01/28 12:35:49;;;;;;;3.13;1.77;;;;;;;;;;4990058;28;20451;-68
2023/01/28 12:38:15;;;;;;;2.27;2.17;;;;;;;;;;4990829;28;20484;-71
2023/01/28 12:40:48;;;;;;;2.30;2.10;;;;;;;;;;4989893;28;20947;-68
2023/01/28 12:43:18;;;;;;;1.10;1.10;;;;;;;;;;4991265;28;20178;-71
2023/01/28 12:45:51;;;;;;;2.50;2.30;;;;;;;;;;4989790;28;20433;-70
2023/01/28 12:48:20;;;;;;;3.63;2.53;;;;;;;;;;4990842;28;20475;-69
2023/01/28 12:50:48;;;;;;;4.20;4.00;;;;;;;;;;4989509;28;20436;-68
2023/01/28 12:53:33;;;;;;;2.67;2.47;;;;;;;;;;4991114;28;20420;-70
2023/01/28 12:56:14;;;;;;;3.47;2.70;;;;;;;;;;4989662;28;20461;-71
2023/01/28 12:58:44;;;;;;;2.60;2.50;;;;;;;;;;4989285;28;20484;-67
2023/01/28 13:01:13;;;;;;;3.37;3.27;;;;;;;;;;4972460;28;20425;-67
2023/01/28 13:03:43;;;;;;;3.50;3.23;;;;;;;;;;4990872;28;20425;-67
2023/01/28 13:06:14;;;;;;;3.80;3.10;;;;;;;;;;4989685;28;20445;-68
2023/01/28 13:08:40;;;;;;;2.43;2.43;;;;;;;;;;4989262;28;20476;-70
2023/01/28 13:11:10;;;;;;;2.53;2.37;;;;;;;;;;4990437;28;20472;-71
2023/01/28 13:13:37;;;;;;;2.83;2.73;;;;;;;;;;4990207;28;20436;-73
2023/01/28 13:16:05;;;;;;;3.10;3.00;;;;;;;;;;4988971;28;20516;-69
2023/01/28 13:18:41;;;;;;;1.90;1.90;;;;;;;;;;4989219;28;20560;-73
2023/01/28 13:21:11;;;;;;;5.27;4.83;;;;;;;;;;4990171;28;20429;-72
2023/01/28 13:23:38;;;;;;;5.10;3.17;;;;;;;;;;4990326;28;20425;-67
2023/01/28 13:26:10;;;;;;;5.00;4.23;;;;;;;;;;4989395;28;20443;-69
2023/01/28 13:28:36;;;;;;;4.60;4.40;;;;;;;;;;4989271;28;20483;-70
2023/01/28 13:31:07;;;;;;;3.93;3.80;;;;;;;;;;4989437;28;20485;-71
2023/01/28 13:33:42;;;;;;;4.43;3.27;;;;;;;;;;4990266;28;20432;-68
2023/01/28 13:36:08;;;;;;;4.40;4.00;;;;;;;;;;4990037;28;20425;-68
2023/01/28 13:38:34;;;;;;;4.50;4.10;;;;;;;;;;4989481;28;20491;-67
2023/01/28 13:41:05;;;;;;;3.97;3.77;;;;;;;;;;4989933;28;20944;-70
2023/01/28 13:43:36;;;;;;;4.10;3.90;;;;;;;;;;4990037;28;20436;-68
2023/01/28 13:46:03;;;;;;;4.63;4.37;;;;;;;;;;4989265;28;20441;-71
2023/01/28 13:48:32;;;;;;;4.23;4.07;;;;;;;;;;4989137;28;20995;-72
2023/01/28 13:50:58;;;;;;;3.60;3.50;;;;;;;;;;4989630;28;20425;-69
2023/01/28 13:53:31;;;;;;;4.70;4.23;;;;;;;;;;4988627;28;20453;-69
2023/01/28 13:55:58;;;;;;;5.00;4.70;;;;;;;;;;4988912;28;20470;-70
2023/01/28 13:58:43;;;;;;;5.07;4.70;;;;;;;;;;4989623;28;20488;-73
2023/01/28 14:01:27;;;;;;;5.03;4.63;;;;;;;;;;4989076;28;20570;-72
2023/01/28 14:04:10;;;;;;;5.03;4.77;;;;;;;;;;4989734;28;20425;-70
2023/01/28 14:06:55;;;;;;;4.53;4.33;;;;;;;;;;4989649;28;21009;-73
2023/01/28 14:09:39;;;;;;;4.60;4.40;;;;;;;;;;4988324;28;20479;-70
2023/01/28 14:12:17;;;;;;;5.37;5.07;;;;;;;;;;4989441;28;20539;-67
2023/01/28 14:14:49;;;;;;;3.80;3.70;;;;;;;;;;4988911;28;20455;-68
2023/01/28 14:17:24;;;;;;;4.97;4.57;;;;;;;;;;4989635;28;20452;-67
2023/01/28 14:19:51;;;;;;;4.50;4.30;;;;;;;;;;4988513;28;20467;-72
2023/01/28 14:22:19;;;;;;;5.17;4.77;;;;;;;;;;4993779;28;20428;-70
2023/01/28 14:24:45;;;;;;;4.10;3.90;;;;;;;;;;4993060;28;20451;-68
2023/01/28 14:27:11;;;;;;;6.20;5.60;;;;;;;;;;4993365;28;20444;-67
2023/01/28 14:29:43;;;;;;;4.60;4.40;;;;;;;;;;4992546;28;21006;-67
2023/01/28 14:32:14;;;;;;;4.83;4.63;;;;;;;;;;4993658;28;20437;-68
2023/01/28 14:34:42;;;;;;;8.03;7.23;;;;;;;;;;4993242;28;20464;-70
2023/01/28 14:37:09;;;;;;;8.03;7.23;;;;;;;;;;4993219;28;20439;-67
2023/01/28 14:39:51;;;;;;;13.93;8.30;;;;;;;;;;4992652;28;20716;-67
2023/01/28 14:42:25;;;;;;;25.30;17.80;;;;;;;;;;4992139;28;21328;-68
2023/01/28 14:45:00;;;;;;;5.50;5.07;;;;;;;;;;4992393;28;20874;-68
2023/01/28 14:47:29;;;;;;;6.57;6.00;;;;;;;;;;4975554;28;20432;-67
2023/01/28 14:50:05;;;;;;;4.63;4.27;;;;;;;;;;4991109;28;20959;-71
2023/01/28 14:52:39;;;;;;;5.93;5.27;;;;;;;;;;4990197;28;20531;-67
2023/01/28 14:55:22;;;;;;;4.87;4.57;;;;;;;;;;4990195;28;20440;-68
2023/01/28 14:57:53;;;;;;;4.53;4.23;;;;;;;;;;4991307;28;20480;-67
2023/01/28 15:00:21;;;;;;;5.63;5.23;;;;;;;;;;4990307;28;20996;-66
2023/01/28 15:02:47;;;;;;;5.60;4.90;;;;;;;;;;4991364;28;20436;-66
2023/01/28 15:05:21;;;;;;;6.87;6.47;;;;;;;;;;4990413;28;20437;-68
2023/01/28 15:07:48;;;;;;;13.97;6.77;;;;;;;;;;4992358;28;20464;-67
2023/01/28 15:10:21;;;;;;;5.83;4.90;;;;;;;;;;4988845;28;20477;-67
2023/01/28 15:12:50;;;;;;;6.07;5.53;;;;;;;;;;4991046;28;20448;-66
2023/01/28 15:15:33;;;;;;;7.00;6.30;;;;;;;;;;4991913;28;20440;-69
2023/01/28 15:18:06;;;;;;;5.87;5.37;;;;;;;;;;4973680;28;20519;-68
2023/01/28 15:20:33;;;;;;;5.47;5.07;;;;;;;;;;4992210;28;20499;-69
2023/01/28 15:23:00;;;;;;;6.60;6.10;;;;;;;;;;4992260;28;20449;-68
2023/01/28 15:25:29;;;;;;;6.03;5.53;;;;;;;;;;4991738;28;20445;-68
2023/01/28 15:27:58;;;;;;;7.43;6.80;;;;;;;;;;4991588;28;20776;-69
2023/01/28 15:30:25;;;;;;;7.67;6.23;;;;;;;;;;4989984;28;20429;-69